Time;durP1;ratioP1;P1;durP2;ratioP2;P2;SDS_P1;SDS_P2;PMS_P1;PMS_P2;Temp;Humidity;BMP_temperature;BMP_pressure;BME280_temperature;BME280_humidity;BME280_pressure;Samples;Min_cycle;Max_cycle;Signal;HPM_P1;HPM_P2
2024/03/23 00:01:01;;;;;;;16.67;7.82;;;;;;;9.22;60.00;99167.94;10406076;28;20483;-83
2024/03/23 00:06:04;;;;;;;15.27;7.72;;;;;;;9.03;60.38;99167.50;10446551;28;20449;-83
2024/03/23 00:11:06;;;;;;;14.32;7.65;;;;;;;9.00;60.49;99156.41;10397065;28;20139;-84
2024/03/23 00:16:08;;;;;;;20.20;8.10;;;;;;;9.10;60.71;99149.66;10415917;28;20064;-84
2024/03/23 00:21:10;;;;;;;16.10;7.75;;;;;;;9.17;60.55;99137.88;10405147;28;20466;-84
2024/03/23 00:26:12;;;;;;;20.05;8.02;;;;;;;9.17;60.37;99123.06;10398065;28;20144;-83
2024/03/23 00:31:14;;;;;;;15.95;7.55;;;;;;;9.18;60.66;99113.47;10411624;28;20148;-84
2024/03/23 00:36:17;;;;;;;16.48;8.07;;;;;;;9.17;60.63;99107.41;10397365;28;20183;-84
2024/03/23 00:41:19;;;;;;;14.68;8.10;;;;;;;9.15;60.72;99096.25;10412853;28;20087;-83
2024/03/23 00:46:21;;;;;;;14.80;7.28;;;;;;;9.27;60.58;99098.03;10411746;28;20490;-84
2024/03/23 00:51:23;;;;;;;18.77;8.18;;;;;;;9.27;60.48;99097.19;10443254;28;20128;-83
2024/03/23 00:56:24;;;;;;;15.50;7.65;;;;;;;9.22;60.59;99089.66;10414401;28;20057;-83
2024/03/23 01:01:25;;;;;;;20.17;8.73;;;;;;;9.21;60.66;99084.56;10398384;28;20056;-83
2024/03/23 01:06:26;;;;;;;16.83;7.90;;;;;;;9.30;60.66;99082.16;10444955;28;20053;-84
2024/03/23 01:11:27;;;;;;;16.17;8.02;;;;;;;9.18;60.78;99076.97;10395815;28;20083;-83
2024/03/23 01:16:28;;;;;;;16.52;8.18;;;;;;;9.27;60.93;99074.56;10417308;28;20063;-84
2024/03/23 01:21:29;;;;;;;20.40;8.10;;;;;;;9.40;60.71;99072.75;10471447;28;20525;-84
2024/03/23 01:26:30;;;;;;;16.27;7.32;;;;;;;9.49;60.54;99066.94;10438091;28;20083;-84
2024/03/23 01:31:31;;;;;;;13.63;6.03;;;;;;;9.48;60.42;99060.03;10419012;28;20127;-84
2024/03/23 01:36:33;;;;;;;14.95;7.57;;;;;;;9.48;60.51;99049.56;10451913;28;20143;-84
2024/03/23 01:41:35;;;;;;;17.83;8.15;;;;;;;9.44;60.49;99032.47;10444101;28;20092;-84
2024/03/23 01:46:37;;;;;;;14.45;6.40;;;;;;;9.43;60.53;99022.97;10450381;28;20099;-84
2024/03/23 01:51:38;;;;;;;16.92;7.63;;;;;;;9.45;60.50;99018.50;10460584;28;20045;-84
2024/03/23 01:56:39;;;;;;;18.08;8.15;;;;;;;9.42;60.59;99008.25;10402386;28;20068;-84
2024/03/23 02:01:41;;;;;;;14.02;7.13;;;;;;;9.34;60.61;99000.13;10421481;28;20091;-83
2024/03/23 02:06:42;;;;;;;16.48;7.93;;;;;;;9.32;60.81;98988.94;10404280;28;20088;-83
2024/03/23 02:11:43;;;;;;;14.38;7.72;;;;;;;9.36;60.77;98989.59;10450259;28;20140;-83
2024/03/23 02:16:44;;;;;;;17.02;7.75;;;;;;;9.36;60.73;98969.53;10444496;28;20113;-83
2024/03/23 02:21:46;;;;;;;19.13;9.05;;;;;;;9.19;61.23;98975.09;10452896;28;20068;-84
2024/03/23 02:26:48;;;;;;;16.58;7.80;;;;;;;9.22;61.92;98968.84;10459305;28;20086;-83
2024/03/23 02:31:49;;;;;;;18.15;8.68;;;;;;;9.16;62.58;98985.75;10443052;28;20083;-83
2024/03/23 02:36:50;;;;;;;14.50;6.65;;;;;;;9.05;63.19;98983.06;10400668;28;20052;-84
2024/03/23 02:41:51;;;;;;;10.13;4.03;;;;;;;9.01;63.10;98981.59;10433617;28;20083;-83
2024/03/23 02:46:52;;;;;;;4.63;2.17;;;;;;;8.90;63.18;98981.47;10434025;28;20048;-84
2024/03/23 02:51:53;;;;;;;5.78;1.27;;;;;;;8.70;62.70;98972.41;10416657;28;20090;-84
2024/03/23 02:56:54;;;;;;;2.55;1.42;;;;;;;8.48;62.50;98986.97;10403140;28;20056;-84
2024/03/23 03:01:55;;;;;;;1.52;0.90;;;;;;;8.28;62.17;98990.03;10434060;28;20576;-84
2024/03/23 03:06:56;;;;;;;1.33;1.00;;;;;;;8.08;61.77;98987.88;10440839;28;20066;-84
2024/03/23 03:11:57;;;;;;;1.73;1.02;;;;;;;8.09;61.73;99003.38;10417512;28;20084;-84
2024/03/23 03:16:58;;;;;;;1.50;0.93;;;;;;;7.84;62.41;98996.28;10417363;28;20080;-84
2024/03/23 03:21:59;;;;;;;1.25;0.93;;;;;;;8.00;61.58;99007.41;10434299;28;20563;-84
2024/03/23 03:27:00;;;;;;;0.82;0.82;;;;;;;8.08;61.80;99024.31;10432094;28;20147;-84
2024/03/23 03:32:05;;;;;;;0.88;0.70;;;;;;;8.05;62.15;99035.75;10448471;28;20041;-83
2024/03/23 03:37:06;;;;;;;1.52;1.00;;;;;;;8.02;62.19;99035.94;10414994;28;20095;-83
2024/03/23 03:42:07;;;;;;;0.80;0.70;;;;;;;8.20;61.81;99037.41;10419026;28;20051;-84
2024/03/23 03:47:08;;;;;;;0.75;0.63;;;;;;;8.10;61.41;99020.69;10415343;28;20139;-84
2024/03/23 03:52:09;;;;;;;0.90;0.80;;;;;;;8.08;61.66;99032.13;10455825;28;20060;-84
2024/03/23 03:57:10;;;;;;;2.78;1.10;;;;;;;8.15;61.34;99029.06;10454940;28;20171;-84
2024/03/23 04:02:11;;;;;;;1.85;1.00;;;;;;;8.09;61.60;99031.19;10415866;28;20084;-83
2024/03/23 04:07:12;;;;;;;3.88;1.30;;;;;;;8.00;61.76;99035.19;10413810;28;20092;-84
2024/03/23 04:12:13;;;;;;;2.60;1.10;;;;;;;8.07;61.68;99038.25;10412819;28;20055;-84
2024/03/23 04:17:14;;;;;;;2.78;1.33;;;;;;;7.81;61.85;99032.91;10414034;28;20190;-84
2024/03/23 04:22:16;;;;;;;2.30;1.40;;;;;;;7.86;61.92;99036.09;10431661;28;20060;-83
2024/03/23 04:27:17;;;;;;;2.40;1.42;;;;;;;7.93;61.85;99044.34;10398532;28;20107;-84
2024/03/23 04:32:18;;;;;;;2.53;1.27;;;;;;;7.84;62.16;99053.56;10413236;28;20040;-84
2024/03/23 04:37:20;;;;;;;2.00;1.15;;;;;;;7.74;62.32;99064.63;10430660;28;20056;-83
2024/03/23 04:42:21;;;;;;;1.85;1.30;;;;;;;7.53;62.55;99074.59;10431112;28;20045;-84
2024/03/23 04:47:22;;;;;;;2.33;1.30;;;;;;;7.50;62.11;99094.75;10445592;28;20052;-84
2024/03/23 04:52:23;;;;;;;1.65;1.25;;;;;;;7.29;61.79;99109.88;10397018;28;20868;-84
2024/03/23 04:57:24;;;;;;;1.42;1.02;;;;;;;6.97;62.03;99136.94;10414041;28;20056;-84
2024/03/23 05:02:25;;;;;;;1.58;0.85;;;;;;;6.75;62.31;99121.75;10447099;28;20110;-84
2024/03/23 05:07:26;;;;;;;1.08;0.82;;;;;;;6.64;62.39;99131.06;10413358;28;20139;-83
2024/03/23 05:12:27;;;;;;;1.25;0.77;;;;;;;6.54;62.22;99135.94;10412751;28;20053;-84
2024/03/23 05:17:28;;;;;;;1.08;0.70;;;;;;;6.56;61.83;99151.44;10411834;28;20143;-83
2024/03/23 05:22:30;;;;;;;0.60;0.60;;;;;;;6.52;61.88;99155.13;10429590;28;20597;-84
2024/03/23 05:27:33;;;;;;;0.60;0.50;;;;;;;6.56;61.95;99167.00;10415814;28;20107;-84
2024/03/23 05:32:34;;;;;;;1.88;1.05;;;;;;;6.44;61.82;99175.47;10435406;28;20045;-84
2024/03/23 05:37:35;;;;;;;1.27;0.90;;;;;;;6.54;61.67;99166.25;10427792;28;20456;-83
2024/03/23 05:42:36;;;;;;;3.25;1.13;;;;;;;6.44;61.82;99180.69;10428759;28;20530;-83
2024/03/23 05:47:37;;;;;;;0.52;0.52;;;;;;;6.43;61.98;99182.44;10411329;28;20143;-83
2024/03/23 05:52:39;;;;;;;1.83;1.08;;;;;;;6.24;62.01;99182.59;10412031;28;20057;-83
2024/03/23 05:57:40;;;;;;;3.08;1.45;;;;;;;6.23;61.50;99196.47;10428450;28;20136;-83
2024/03/23 06:02:45;;;;;;;3.60;1.58;;;;;;;6.31;61.48;99214.25;10434318;28;20128;-84
2024/03/23 06:07:46;;;;;;;2.35;1.00;;;;;;;6.37;61.56;99234.72;10443764;28;20085;-83
2024/03/23 06:12:48;;;;;;;1.05;0.93;;;;;;;6.39;61.04;99242.44;10458599;28;20045;-84
2024/03/23 06:17:49;;;;;;;1.80;0.90;;;;;;;6.31;61.18;99250.63;10434553;28;20129;-83
2024/03/23 06:22:50;;;;;;;3.97;1.85;;;;;;;6.43;60.94;99260.34;10400161;28;20045;-84
2024/03/23 06:27:51;;;;;;;6.80;1.40;;;;;;;6.49;60.61;99264.41;10434479;28;20445;-84
2024/03/23 06:32:53;;;;;;;2.88;1.35;;;;;;;6.54;60.69;99270.16;10417791;28;20057;-83
2024/03/23 06:37:54;;;;;;;2.13;1.20;;;;;;;6.56;60.35;99281.31;10417320;28;20075;-83
2024/03/23 06:42:55;;;;;;;3.25;1.65;;;;;;;6.55;60.29;99274.47;10433537;28;20079;-83
2024/03/23 06:47:57;;;;;;;2.33;1.48;;;;;;;6.48;59.59;99289.53;10433855;28;20499;-84
2024/03/23 06:52:58;;;;;;;3.95;1.65;;;;;;;6.72;59.89;99297.75;10408134;28;20143;-84
2024/03/23 06:57:59;;;;;;;5.13;2.20;;;;;;;6.96;59.27;99286.88;10418110;28;20045;-84
2024/03/23 07:03:01;;;;;;;4.95;2.42;;;;;;;7.12;59.23;99303.28;10401738;28;20054;-83
2024/03/23 07:08:02;;;;;;;3.83;2.05;;;;;;;7.17;59.05;99306.47;10402907;28;20065;-84
2024/03/23 07:13:03;;;;;;;3.45;1.85;;;;;;;7.16;58.86;99315.19;10415538;28;20084;-84
2024/03/23 07:18:05;;;;;;;5.63;2.35;;;;;;;7.27;58.69;99325.00;10417301;28;20152;-83
2024/03/23 07:23:06;;;;;;;4.20;1.90;;;;;;;7.17;58.98;99339.44;10441102;28;20045;-83
2024/03/23 07:28:07;;;;;;;4.70;2.30;;;;;;;7.36;58.66;99334.06;10441319;28;20065;-84
2024/03/23 07:33:08;;;;;;;3.70;1.80;;;;;;;7.60;58.54;99333.50;10399674;28;20048;-83
2024/03/23 07:38:09;;;;;;;3.97;2.10;;;;;;;7.59;58.16;99338.81;10430925;28;20145;-83
2024/03/23 07:43:10;;;;;;;14.10;3.50;;;;;;;7.55;58.13;99339.91;10431674;28;20043;-84
2024/03/23 07:48:11;;;;;;;6.25;2.72;;;;;;;7.81;57.73;99334.06;10439810;28;20059;-84
2024/03/23 07:53:12;;;;;;;8.23;2.70;;;;;;;8.23;57.27;99336.78;10448832;28;20131;-84
2024/03/23 07:58:13;;;;;;;6.32;2.55;;;;;;;8.93;56.42;99332.47;10401150;28;20071;-83
2024/03/23 08:03:14;;;;;;;6.05;1.90;;;;;;;9.02;55.79;99335.34;10417167;28;20052;-83
2024/03/23 08:08:15;;;;;;;4.85;2.47;;;;;;;8.98;55.65;99348.66;10422535;28;20037;-83
2024/03/23 08:13:17;;;;;;;3.08;1.30;;;;;;;8.99;56.00;99348.59;10415360;28;20567;-83
2024/03/23 08:18:18;;;;;;;3.70;1.42;;;;;;;8.97;55.87;99355.66;10415109;28;20036;-84
2024/03/23 08:23:19;;;;;;;5.65;1.70;;;;;;;9.06;54.80;99364.66;10438080;28;20049;-83
2024/03/23 08:28:20;;;;;;;5.07;1.52;;;;;;;9.19;55.17;99371.66;10398225;28;20063;-84
2024/03/23 08:33:25;;;;;;;3.17;1.45;;;;;;;9.71;54.04;99355.31;10412660;28;20049;-81
2024/03/23 08:38:28;;;;;;;4.45;1.80;;;;;;;9.19;54.39;99356.00;10395249;28;20849;-82
2024/03/23 08:43:31;;;;;;;6.10;1.83;;;;;;;9.87;53.72;99358.56;10421931;28;20070;-82
2024/03/23 08:48:33;;;;;;;6.60;1.90;;;;;;;9.33;52.92;99355.09;10431556;28;20098;-81
2024/03/23 08:53:38;;;;;;;2.88;1.65;;;;;;;9.90;52.84;99351.38;10421091;28;20127;-82
2024/03/23 08:58:39;;;;;;;2.95;1.73;;;;;;;10.27;52.23;99347.13;10419880;28;20060;-82
2024/03/23 09:03:40;;;;;;;5.88;1.90;;;;;;;10.74;51.45;99346.50;10412897;28;20254;-81
2024/03/23 09:08:41;;;;;;;4.70;1.77;;;;;;;10.78;50.93;99351.41;10411766;28;20155;-82
2024/03/23 09:13:43;;;;;;;4.82;1.63;;;;;;;11.03;50.01;99348.72;10397050;28;20045;-81
2024/03/23 09:18:45;;;;;;;6.70;2.00;;;;;;;10.96;48.79;99346.66;10420017;28;20060;-82
2024/03/23 09:23:46;;;;;;;4.28;1.63;;;;;;;10.52;47.70;99332.28;10428663;28;20059;-83
2024/03/23 09:28:49;;;;;;;4.95;1.90;;;;;;;10.18;47.86;99340.75;10429077;28;20107;-83
2024/03/23 09:33:50;;;;;;;3.80;1.58;;;;;;;10.35;48.25;99330.00;10435555;28;20045;-82
2024/03/23 09:38:51;;;;;;;5.97;2.25;;;;;;;11.09;46.03;99330.00;10421139;28;20466;-83
2024/03/23 09:43:53;;;;;;;5.22;1.77;;;;;;;11.40;44.89;99336.50;10428015;28;20072;-83
2024/03/23 09:48:56;;;;;;;1.73;1.00;;;;;;;11.15;44.10;99326.94;10420191;28;20151;-83
2024/03/23 09:53:57;;;;;;;4.65;0.95;;;;;;;10.54;45.09;99337.41;10443622;28;20063;-84
2024/03/23 09:59:03;;;;;;;3.42;1.25;;;;;;;10.74;45.16;99347.34;10452906;28;20063;-83
2024/03/23 10:04:04;;;;;;;2.60;1.08;;;;;;;10.76;45.21;99327.13;10411235;28;20087;-83
2024/03/23 10:09:18;;;;;;;3.63;1.05;;;;;;;11.25;44.13;99314.06;10425558;28;20053;-81
2024/03/23 10:14:42;;;;;;;3.33;1.00;;;;;;;11.22;43.98;99315.09;10439306;28;20048;-81
2024/03/23 10:19:44;;;;;;;4.30;1.50;;;;;;;11.45;44.00;99302.97;10442596;28;20131;-82
2024/03/23 10:24:46;;;;;;;6.20;1.52;;;;;;;11.50;43.81;99298.22;10450606;28;20402;-82
2024/03/23 10:29:48;;;;;;;6.00;1.17;;;;;;;11.79;42.65;99304.75;10428001;28;20061;-82
2024/03/23 10:34:49;;;;;;;2.83;1.13;;;;;;;11.13;42.20;99310.50;10418707;28;20092;-82
2024/03/23 10:39:50;;;;;;;3.83;1.27;;;;;;;11.06;40.94;99304.06;10433435;28;20072;-83
2024/03/23 10:44:53;;;;;;;1.25;0.98;;;;;;;10.88;42.19;99310.59;10433147;28;20080;-83
2024/03/23 10:49:54;;;;;;;4.90;1.38;;;;;;;11.47;42.58;99274.88;10435588;28;20175;-83
2024/03/23 10:54:57;;;;;;;3.92;1.40;;;;;;;11.90;41.48;99291.72;10452476;28;20132;-83
2024/03/23 10:59:58;;;;;;;3.55;1.98;;;;;;;11.23;41.36;99292.38;10425170;28;20056;-83
2024/03/23 11:05:00;;;;;;;7.20;1.75;;;;;;;11.55;41.22;99298.72;10436856;28;20060;-83
2024/03/23 11:10:02;;;;;;;2.97;1.48;;;;;;;11.83;39.78;99282.63;10403458;28;20067;-82
2024/03/23 11:15:06;;;;;;;2.13;1.58;;;;;;;12.16;40.05;99271.38;10419533;28;20052;-83
2024/03/23 11:20:10;;;;;;;4.35;1.33;;;;;;;11.81;40.77;99278.44;10443137;28;20139;-83
2024/03/23 11:25:25;;;;;;;3.95;1.30;;;;;;;11.19;41.53;99294.38;10435155;28;20102;-82
2024/03/23 11:30:30;;;;;;;3.03;1.42;;;;;;;10.94;43.33;99299.69;10440022;28;20136;-83
2024/03/23 11:35:33;;;;;;;5.13;1.90;;;;;;;11.29;43.25;99312.88;10422247;28;21005;-83
2024/03/23 11:40:41;;;;;;;3.90;1.77;;;;;;;11.31;43.17;99297.91;10447584;28;20442;-82
2024/03/23 11:45:46;;;;;;;3.42;1.50;;;;;;;11.36;43.26;99284.50;10404635;28;20131;-83
2024/03/23 11:50:49;;;;;;;4.97;1.33;;;;;;;11.15;42.27;99277.22;10438425;28;20489;-82
2024/03/23 11:55:52;;;;;;;6.57;2.40;;;;;;;10.73;43.50;99298.56;10421684;28;20140;-82
2024/03/23 12:00:57;;;;;;;2.90;1.17;;;;;;;9.92;44.68;99330.38;10420418;28;20079;-80
2024/03/23 12:06:01;;;;;;;3.53;0.80;;;;;;;9.47;47.01;99355.91;10383613;28;20060;-81
2024/03/23 12:11:10;;;;;;;0.95;0.70;;;;;;;8.92;48.89;99336.00;10397389;28;20060;-81
2024/03/23 12:16:16;;;;;;;1.63;0.73;;;;;;;9.04;48.28;99330.84;10404509;28;20045;-80
2024/03/23 12:21:18;;;;;;;2.90;1.05;;;;;;;9.45;48.26;99330.84;10431092;28;20064;-80
2024/03/23 12:26:20;;;;;;;0.82;0.55;;;;;;;9.51;48.40;99335.66;10420131;28;20053;-80
2024/03/23 12:31:21;;;;;;;0.82;0.60;;;;;;;9.13;49.02;99360.75;10445391;28;20057;-80
2024/03/23 12:36:22;;;;;;;0.65;0.65;;;;;;;8.56;49.98;99418.16;10415221;28;20056;-81
2024/03/23 12:41:23;;;;;;;1.25;0.70;;;;;;;7.92;52.03;99388.94;10419918;28;20061;-81
2024/03/23 12:46:24;;;;;;;1.10;0.70;;;;;;;7.80;51.68;99390.47;10420962;28;20147;-81
2024/03/23 12:51:25;;;;;;;2.95;0.70;;;;;;;7.65;53.55;99383.53;10414330;28;20139;-80
2024/03/23 12:56:28;;;;;;;1.40;0.75;;;;;;;8.50;53.34;99384.63;10413452;28;20516;-81
2024/03/23 13:01:29;;;;;;;1.45;0.77;;;;;;;8.85;53.55;99377.28;10414088;28;20048;-81
2024/03/23 13:06:33;;;;;;;1.10;0.63;;;;;;;9.63;52.77;99372.25;10431202;28;20061;-80
2024/03/23 13:11:34;;;;;;;0.93;0.65;;;;;;;10.19;52.19;99362.50;10419254;28;20420;-81
2024/03/23 13:16:35;;;;;;;0.93;0.70;;;;;;;9.25;53.20;99355.59;10437254;28;20064;-81
2024/03/23 13:21:37;;;;;;;0.77;0.70;;;;;;;8.98;53.80;99354.72;10405609;28;20064;-80
2024/03/23 13:26:39;;;;;;;0.90;0.60;;;;;;;8.47;54.19;99363.13;10404670;28;20068;-81
2024/03/23 13:31:40;;;;;;;3.03;0.95;;;;;;;7.90;55.68;99386.41;10428729;28;20057;-80
2024/03/23 13:36:44;;;;;;;1.13;0.70;;;;;;;7.86;55.82;99369.31;10421790;28;20133;-81
2024/03/23 13:41:46;;;;;;;2.85;0.68;;;;;;;7.85;55.75;99366.78;10464817;28;20589;-80
2024/03/23 13:47:14;;;;;;;1.08;0.90;;;;;;;8.02;57.14;99354.47;10404629;28;20166;-80
2024/03/23 13:52:15;;;;;;;1.02;0.68;;;;;;;8.96;54.40;99351.38;10441763;28;20907;-80
2024/03/23 13:57:17;;;;;;;0.93;0.70;;;;;;;9.85;53.56;99342.16;10422645;28;20060;-80
2024/03/23 14:02:18;;;;;;;1.98;0.85;;;;;;;10.10;52.52;99329.13;10439616;28;20175;-81
2024/03/23 14:07:19;;;;;;;1.15;0.70;;;;;;;9.98;53.04;99315.13;10424297;28;20049;-81
2024/03/23 14:12:20;;;;;;;0.50;0.38;;;;;;;10.03;53.17;99294.78;10436476;28;20049;-80
2024/03/23 14:17:21;;;;;;;0.77;0.68;;;;;;;9.83;52.81;99291.81;10419351;28;20064;-81
2024/03/23 14:22:22;;;;;;;0.60;0.60;;;;;;;9.73;53.30;99288.97;10418021;28;20044;-81
2024/03/23 14:27:24;;;;;;;1.30;0.40;;;;;;;9.25;53.88;99294.75;10417516;28;20191;-81
2024/03/23 14:32:25;;;;;;;0.85;0.63;;;;;;;8.94;54.16;99306.28;10402831;28;20048;-81
2024/03/23 14:37:26;;;;;;;0.63;0.50;;;;;;;8.73;53.46;99285.00;10389837;28;20124;-81
2024/03/23 14:42:27;;;;;;;1.17;0.73;;;;;;;8.60;53.75;99296.28;10376164;28;20124;-81
2024/03/23 14:47:28;;;;;;;0.50;0.50;;;;;;;8.74;54.22;99298.88;10392100;28;20057;-82
2024/03/23 14:52:30;;;;;;;0.77;0.68;;;;;;;8.52;54.55;99295.94;10377257;28;20513;-81
2024/03/23 14:57:31;;;;;;;1.88;0.80;;;;;;;8.40;55.02;99283.66;10391785;28;20140;-81
2024/03/23 15:02:32;;;;;;;1.70;0.85;;;;;;;8.68;54.45;99291.44;10376543;28;20087;-83
2024/03/23 15:07:33;;;;;;;2.05;1.00;;;;;;;8.60;54.45;99288.47;10377288;28;20064;-83
2024/03/23 15:12:34;;;;;;;1.50;0.93;;;;;;;8.62;54.42;99277.03;10376953;28;20140;-82
2024/03/23 15:17:36;;;;;;;1.92;0.98;;;;;;;8.93;54.21;99273.34;10376419;28;20052;-82
2024/03/23 15:22:37;;;;;;;1.05;0.70;;;;;;;9.55;53.94;99269.25;10397780;28;20148;-82
2024/03/23 15:27:38;;;;;;;1.98;0.85;;;;;;;9.76;52.74;99248.75;10425268;28;20053;-82
2024/03/23 15:32:39;;;;;;;0.95;0.77;;;;;;;9.32;52.52;99249.88;10392443;28;20058;-82
2024/03/23 15:37:40;;;;;;;0.43;0.43;;;;;;;9.17;51.68;99253.50;10406258;28;20072;-83
2024/03/23 15:42:41;;;;;;;2.67;0.90;;;;;;;8.89;51.14;99243.19;10399511;28;20052;-82
2024/03/23 15:47:42;;;;;;;1.38;0.77;;;;;;;9.23;51.65;99247.91;10415315;28;20053;-82
2024/03/23 15:52:43;;;;;;;2.75;0.65;;;;;;;9.30;50.92;99243.13;10430050;28;20060;-82
2024/03/23 15:57:44;;;;;;;0.82;0.50;;;;;;;9.15;51.37;99244.09;10449682;28;20498;-82
2024/03/23 16:02:46;;;;;;;0.75;0.60;;;;;;;8.84;51.30;99240.00;10432593;28;20057;-82
2024/03/23 16:07:47;;;;;;;0.50;0.50;;;;;;;8.48;51.00;99250.16;10412186;28;20094;-83
2024/03/23 16:12:48;;;;;;;0.60;0.60;;;;;;;8.37;51.75;99250.81;10414505;28;20844;-82
2024/03/23 16:17:49;;;;;;;0.38;0.38;;;;;;;8.12;51.10;99247.19;10431851;28;20053;-82
2024/03/23 16:22:50;;;;;;;0.82;0.55;;;;;;;8.03;51.66;99235.53;10430312;28;20060;-82
2024/03/23 16:27:52;;;;;;;0.77;0.70;;;;;;;7.98;51.49;99229.75;10413419;28;20137;-81
2024/03/23 16:32:53;;;;;;;0.50;0.40;;;;;;;7.65;51.92;99247.38;10432852;28;20052;-82
2024/03/23 16:37:54;;;;;;;1.88;1.10;;;;;;;7.60;52.00;99273.66;10411555;28;20437;-82
2024/03/23 16:42:55;;;;;;;3.10;0.70;;;;;;;6.92;54.29;99346.91;10399274;28;20056;-82
2024/03/23 16:47:58;;;;;;;0.40;0.40;;;;;;;6.24;55.12;99347.91;10443268;28;20091;-82
2024/03/23 16:52:59;;;;;;;1.08;0.50;;;;;;;5.82;56.11;99363.06;10445304;28;20081;-82
2024/03/23 16:58:00;;;;;;;0.63;0.45;;;;;;;5.61;57.34;99341.59;10459001;28;20048;-81
2024/03/23 17:03:04;;;;;;;0.52;0.40;;;;;;;5.63;56.84;99333.72;10397052;28;20057;-82
2024/03/23 17:08:07;;;;;;;0.77;0.77;;;;;;;5.57;57.99;99316.72;10419728;28;20055;-83
2024/03/23 17:13:08;;;;;;;0.70;0.70;;;;;;;5.61;58.59;99296.66;10414443;28;20045;-83
2024/03/23 17:18:10;;;;;;;1.25;0.60;;;;;;;5.69;57.36;99291.94;10433678;28;20057;-82
2024/03/23 17:23:11;;;;;;;1.08;0.98;;;;;;;5.52;57.56;99296.19;10414051;28;20076;-81
2024/03/23 17:28:12;;;;;;;1.02;0.90;;;;;;;5.55;58.16;99295.22;10412794;28;20148;-81
2024/03/23 17:33:14;;;;;;;1.25;0.75;;;;;;;5.63;57.67;99298.28;10442977;28;20091;-81
2024/03/23 17:38:15;;;;;;;1.88;1.00;;;;;;;5.43;57.85;99303.59;10415371;28;20049;-81
2024/03/23 17:43:16;;;;;;;1.08;0.63;;;;;;;5.33;58.42;99312.75;10431971;28;20052;-81
2024/03/23 17:48:17;;;;;;;0.80;0.55;;;;;;;5.25;58.32;99292.34;10412260;28;20494;-81
2024/03/23 17:53:18;;;;;;;0.77;0.65;;;;;;;5.19;58.91;99309.94;10412975;28;20143;-81
2024/03/23 17:58:20;;;;;;;1.20;0.60;;;;;;;5.20;59.33;99311.63;10417537;28;20128;-81
2024/03/23 18:03:21;;;;;;;0.77;0.47;;;;;;;4.85;60.76;99318.47;10453302;28;20477;-81
2024/03/23 18:08:22;;;;;;;0.50;0.50;;;;;;;4.85;60.98;99325.41;10426909;28;20528;-81
2024/03/23 18:13:23;;;;;;;2.15;0.82;;;;;;;4.91;60.80;99330.28;10401450;28;20052;-81
2024/03/23 18:18:25;;;;;;;0.80;0.60;;;;;;;4.92;60.88;99319.88;10418245;28;20059;-81
2024/03/23 18:23:26;;;;;;;0.47;0.47;;;;;;;4.93;60.76;99315.50;10419849;28;20144;-80
2024/03/23 18:28:27;;;;;;;0.57;0.57;;;;;;;5.14;60.56;99298.97;10441704;28;20281;-80
2024/03/23 18:33:39;;;;;;;0.50;0.50;;;;;;;5.23;60.50;99294.16;10417371;28;20788;-81
2024/03/23 18:38:40;;;;;;;0.70;0.60;;;;;;;5.08;60.03;99299.25;10375793;28;20164;-81
2024/03/23 18:43:45;;;;;;;0.93;0.73;;;;;;;4.89;60.12;99299.28;10404953;28;20081;-81
2024/03/23 18:48:46;;;;;;;0.77;0.77;;;;;;;4.86;60.80;99296.00;10384786;28;20050;-81
2024/03/23 18:53:47;;;;;;;0.80;0.60;;;;;;;4.85;61.02;99302.06;10378000;28;20045;-81
2024/03/23 18:58:50;;;;;;;0.65;0.60;;;;;;;4.80;60.65;99286.75;10377052;28;20064;-81
2024/03/23 19:03:51;;;;;;;1.58;1.25;;;;;;;4.55;61.31;99284.47;10375620;28;20045;-81
2024/03/23 19:08:52;;;;;;;0.68;0.57;;;;;;;4.46;61.88;99286.63;10375366;28;20104;-81
2024/03/23 19:13:54;;;;;;;1.10;0.80;;;;;;;4.35;61.92;99275.91;10376531;28;20057;-81
2024/03/23 19:18:56;;;;;;;1.23;0.60;;;;;;;4.15;62.21;99271.59;10383544;28;20084;-81
2024/03/23 19:23:58;;;;;;;0.68;0.65;;;;;;;4.15;62.26;99274.19;10390588;28;20050;-81
2024/03/23 19:28:59;;;;;;;1.33;0.60;;;;;;;3.98;62.89;99271.53;10376687;28;20050;-81
2024/03/23 19:34:00;;;;;;;1.58;0.68;;;;;;;3.98;62.58;99273.25;10374714;28;20486;-82
2024/03/23 19:39:02;;;;;;;0.82;0.75;;;;;;;3.92;62.68;99271.78;10374631;28;20049;-82
2024/03/23 19:44:04;;;;;;;2.13;1.00;;;;;;;3.94;62.65;99269.97;10415718;28;20135;-82
2024/03/23 19:49:05;;;;;;;0.70;0.70;;;;;;;4.03;62.54;99266.97;10417423;28;20066;-81
2024/03/23 19:54:06;;;;;;;0.88;0.65;;;;;;;3.98;62.44;99260.31;10414792;28;20072;-81
2024/03/23 19:59:08;;;;;;;3.35;1.23;;;;;;;3.90;62.40;99257.22;10441475;28;20482;-81
2024/03/23 20:04:09;;;;;;;2.72;1.30;;;;;;;3.96;62.81;99257.81;10415134;28;20135;-81
2024/03/23 20:09:11;;;;;;;0.88;0.85;;;;;;;3.96;62.15;99272.50;10417106;28;20056;-81
2024/03/23 20:14:12;;;;;;;1.58;1.00;;;;;;;3.89;62.59;99261.56;10418200;28;20139;-82
2024/03/23 20:19:13;;;;;;;0.95;0.90;;;;;;;3.80;62.94;99261.94;10421281;28;20122;-81
2024/03/23 20:24:14;;;;;;;1.55;1.10;;;;;;;3.70;62.52;99260.66;10398063;28;20098;-81
2024/03/23 20:29:15;;;;;;;2.15;1.23;;;;;;;3.62;63.22;99257.56;10433632;28;20503;-82
2024/03/23 20:34:20;;;;;;;1.83;1.02;;;;;;;3.59;62.99;99273.19;10428830;28;20060;-81
2024/03/23 20:39:21;;;;;;;2.13;1.23;;;;;;;3.61;62.91;99267.06;10357309;28;20544;-81
2024/03/23 20:44:22;;;;;;;1.05;0.95;;;;;;;3.63;63.19;99270.41;10388487;28;20097;-81
2024/03/23 20:49:24;;;;;;;3.60;1.50;;;;;;;3.76;62.50;99273.31;10370546;28;20147;-81
2024/03/23 20:54:27;;;;;;;2.47;1.30;;;;;;;3.78;62.77;99263.75;10378061;28;20069;-81
2024/03/23 20:59:31;;;;;;;4.00;1.17;;;;;;;3.75;62.44;99264.72;10387916;28;20053;-82
2024/03/23 21:04:33;;;;;;;3.28;1.40;;;;;;;3.73;62.46;99269.13;10396590;28;20703;-82
2024/03/23 21:09:34;;;;;;;1.50;0.93;;;;;;;3.70;62.64;99265.81;10387026;28;20072;-81
2024/03/23 21:14:37;;;;;;;1.85;1.10;;;;;;;3.81;62.46;99264.47;10355726;28;20045;-82
2024/03/23 21:19:39;;;;;;;0.90;0.85;;;;;;;3.85;62.41;99254.84;10394275;28;20097;-81
2024/03/23 21:24:43;;;;;;;1.48;0.90;;;;;;;3.89;62.35;99253.81;10370150;28;21079;-81
2024/03/23 21:29:44;;;;;;;0.98;0.88;;;;;;;4.04;62.03;99245.38;10394933;28;20545;-82
2024/03/23 21:34:45;;;;;;;2.67;1.50;;;;;;;4.07;61.76;99247.00;10382376;28;20103;-81
2024/03/23 21:39:46;;;;;;;2.08;1.00;;;;;;;3.92;62.28;99235.56;10416840;28;20156;-81
2024/03/23 21:44:48;;;;;;;4.47;1.40;;;;;;;3.90;62.34;99223.59;10436982;28;20469;-82
2024/03/23 21:49:49;;;;;;;4.43;1.77;;;;;;;3.77;62.21;99221.53;10419805;28;20151;-82
2024/03/23 21:54:50;;;;;;;2.30;1.27;;;;;;;3.58;62.64;99212.88;10419127;28;20084;-82
2024/03/23 21:59:52;;;;;;;1.35;0.85;;;;;;;3.46;63.04;99208.22;10404574;28;20183;-82
2024/03/23 22:04:53;;;;;;;1.10;0.70;;;;;;;3.45;63.03;99209.16;10401683;28;20060;-81
2024/03/23 22:09:54;;;;;;;1.85;0.85;;;;;;;3.51;62.94;99202.88;10443516;28;20048;-81
2024/03/23 22:14:56;;;;;;;3.22;0.95;;;;;;;3.55;62.66;99184.59;10418335;28;20786;-81
2024/03/23 22:19:58;;;;;;;2.65;0.80;;;;;;;3.52;62.94;99178.69;10404144;28;20091;-81
2024/03/23 22:24:59;;;;;;;1.77;1.10;;;;;;;3.51;62.72;99179.59;10401440;28;20053;-82
2024/03/23 22:30:00;;;;;;;1.42;0.82;;;;;;;3.47;63.02;99184.06;10417476;28;20076;-81
2024/03/23 22:35:03;;;;;;;1.90;0.88;;;;;;;3.46;63.20;99184.97;10433601;28;20135;-82
2024/03/23 22:40:04;;;;;;;2.20;1.08;;;;;;;3.42;63.05;99188.59;10400721;28;20056;-81
2024/03/23 22:45:07;;;;;;;1.83;1.00;;;;;;;3.33;63.59;99185.56;10402882;28;20056;-81
2024/03/23 22:50:10;;;;;;;2.88;1.25;;;;;;;3.21;64.12;99184.34;10410095;28;20061;-82
2024/03/23 22:55:11;;;;;;;2.78;1.08;;;;;;;3.16;64.12;99180.25;10418373;28;20135;-81
2024/03/23 23:00:14;;;;;;;2.00;1.30;;;;;;;3.17;64.05;99169.88;10433393;28;20672;-82
2024/03/23 23:05:15;;;;;;;1.13;0.98;;;;;;;3.27;64.01;99168.56;10441124;28;20045;-82
2024/03/23 23:10:16;;;;;;;1.55;1.05;;;;;;;3.15;64.82;99168.25;10417171;28;20060;-82
2024/03/23 23:15:17;;;;;;;1.77;1.30;;;;;;;3.31;64.15;99162.38;10417288;28;20103;-81
2024/03/23 23:20:19;;;;;;;1.02;0.80;;;;;;;3.38;63.87;99150.84;10431527;28;20140;-81
2024/03/23 23:25:20;;;;;;;1.35;1.10;;;;;;;3.44;63.67;99149.75;10422969;28;20517;-81
2024/03/23 23:30:21;;;;;;;4.72;1.55;;;;;;;3.43;63.72;99140.31;10426541;28;20053;-81
2024/03/23 23:35:22;;;;;;;5.93;1.40;;;;;;;3.50;63.44;99139.13;10416405;28;20083;-81